sensor_id;sensor_type;location;lat;lon;timestamp;temperature;humidity
32753;DHT22;19121;52.428;10.816;2023-09-19T00:01:32;23.50;58.70
32753;DHT22;19121;52.428;10.816;2023-09-19T00:03:57;23.50;58.70
32753;DHT22;19121;52.428;10.816;2023-09-19T00:06:23;23.50;58.70
32753;DHT22;19121;52.428;10.816;2023-09-19T00:08:51;23.50;58.60
32753;DHT22;19121;52.428;10.816;2023-09-19T00:11:17;23.40;58.60
32753;DHT22;19121;52.428;10.816;2023-09-19T00:13:43;23.40;58.60
32753;DHT22;19121;52.428;10.816;2023-09-19T00:16:09;23.40;58.60
32753;DHT22;19121;52.428;10.816;2023-09-19T00:18:36;23.40;58.60
32753;DHT22;19121;52.428;10.816;2023-09-19T00:21:01;23.40;58.60
32753;DHT22;19121;52.428;10.816;2023-09-19T00:23:29;23.40;58.60
32753;DHT22;19121;52.428;10.816;2023-09-19T00:25:59;23.50;58.70
32753;DHT22;19121;52.428;10.816;2023-09-19T00:28:26;23.40;58.60
32753;DHT22;19121;52.428;10.816;2023-09-19T00:30:51;23.40;58.60
32753;DHT22;19121;52.428;10.816;2023-09-19T00:33:17;23.40;58.70
32753;DHT22;19121;52.428;10.816;2023-09-19T00:35:48;23.40;58.70
32753;DHT22;19121;52.428;10.816;2023-09-19T00:38:14;23.40;58.70
32753;DHT22;19121;52.428;10.816;2023-09-19T00:40:45;23.40;58.70
32753;DHT22;19121;52.428;10.816;2023-09-19T00:43:10;23.40;58.70
32753;DHT22;19121;52.428;10.816;2023-09-19T00:45:36;23.40;58.70
32753;DHT22;19121;52.428;10.816;2023-09-19T00:48:04;23.40;58.70
32753;DHT22;19121;52.428;10.816;2023-09-19T00:50:37;23.40;58.70
32753;DHT22;19121;52.428;10.816;2023-09-19T00:53:05;23.40;58.70
32753;DHT22;19121;52.428;10.816;2023-09-19T00:55:34;23.40;58.70
32753;DHT22;19121;52.428;10.816;2023-09-19T00:57:59;23.30;58.70
32753;DHT22;19121;52.428;10.816;2023-09-19T01:00:25;23.40;58.80
32753;DHT22;19121;52.428;10.816;2023-09-19T01:02:50;23.40;58.80
32753;DHT22;19121;52.428;10.816;2023-09-19T01:05:16;23.30;58.70
32753;DHT22;19121;52.428;10.816;2023-09-19T01:07:42;23.30;58.70
32753;DHT22;19121;52.428;10.816;2023-09-19T01:10:14;23.30;58.70
32753;DHT22;19121;52.428;10.816;2023-09-19T01:15:28;23.30;58.70
32753;DHT22;19121;52.428;10.816;2023-09-19T01:23:24;23.30;58.70
32753;DHT22;19121;52.428;10.816;2023-09-19T01:26:01;23.30;58.70
32753;DHT22;19121;52.428;10.816;2023-09-19T01:31:19;23.30;58.80
32753;DHT22;19121;52.428;10.816;2023-09-19T01:33:53;23.30;58.80
32753;DHT22;19121;52.428;10.816;2023-09-19T01:36:22;23.30;58.80
32753;DHT22;19121;52.428;10.816;2023-09-19T01:38:48;23.20;58.70
32753;DHT22;19121;52.428;10.816;2023-09-19T01:41:14;23.30;58.80
32753;DHT22;19121;52.428;10.816;2023-09-19T01:43:42;23.30;58.80
32753;DHT22;19121;52.428;10.816;2023-09-19T01:46:09;23.30;58.80
32753;DHT22;19121;52.428;10.816;2023-09-19T01:48:40;23.20;58.70
32753;DHT22;19121;52.428;10.816;2023-09-19T01:51:09;23.20;58.80
32753;DHT22;19121;52.428;10.816;2023-09-19T01:56:34;23.20;58.70
32753;DHT22;19121;52.428;10.816;2023-09-19T01:59:04;23.20;58.70
32753;DHT22;19121;52.428;10.816;2023-09-19T02:01:31;23.20;58.80
32753;DHT22;19121;52.428;10.816;2023-09-19T02:03:56;23.20;58.80
32753;DHT22;19121;52.428;10.816;2023-09-19T02:06:23;23.20;58.80
32753;DHT22;19121;52.428;10.816;2023-09-19T02:08:50;23.20;58.70
32753;DHT22;19121;52.428;10.816;2023-09-19T02:11:15;23.20;58.70
32753;DHT22;19121;52.428;10.816;2023-09-19T02:13:41;23.20;58.80
32753;DHT22;19121;52.428;10.816;2023-09-19T02:16:07;23.20;58.70
32753;DHT22;19121;52.428;10.816;2023-09-19T02:18:36;23.20;58.70
32753;DHT22;19121;52.428;10.816;2023-09-19T02:21:02;23.20;58.70
32753;DHT22;19121;52.428;10.816;2023-09-19T02:23:27;23.20;58.70
32753;DHT22;19121;52.428;10.816;2023-09-19T02:25:53;23.20;58.70
32753;DHT22;19121;52.428;10.816;2023-09-19T02:28:18;23.20;58.70
32753;DHT22;19121;52.428;10.816;2023-09-19T02:30:47;23.20;58.70
32753;DHT22;19121;52.428;10.816;2023-09-19T02:33:12;23.20;58.70
32753;DHT22;19121;52.428;10.816;2023-09-19T02:35:38;23.20;58.70
32753;DHT22;19121;52.428;10.816;2023-09-19T02:38:04;23.10;58.70
32753;DHT22;19121;52.428;10.816;2023-09-19T02:40:31;23.10;58.70
32753;DHT22;19121;52.428;10.816;2023-09-19T02:42:57;23.10;58.70
32753;DHT22;19121;52.428;10.816;2023-09-19T02:45:24;23.10;58.60
32753;DHT22;19121;52.428;10.816;2023-09-19T02:47:50;23.10;58.60
32753;DHT22;19121;52.428;10.816;2023-09-19T02:50:15;23.10;58.60
32753;DHT22;19121;52.428;10.816;2023-09-19T02:52:42;23.10;58.60
32753;DHT22;19121;52.428;10.816;2023-09-19T02:55:09;23.10;58.60
32753;DHT22;19121;52.428;10.816;2023-09-19T02:57:35;23.10;58.60
32753;DHT22;19121;52.428;10.816;2023-09-19T03:00:02;23.10;58.60
32753;DHT22;19121;52.428;10.816;2023-09-19T03:02:27;23.10;58.60
32753;DHT22;19121;52.428;10.816;2023-09-19T03:04:53;23.10;58.60
32753;DHT22;19121;52.428;10.816;2023-09-19T03:07:18;23.10;58.60
32753;DHT22;19121;52.428;10.816;2023-09-19T03:09:44;23.10;58.60
32753;DHT22;19121;52.428;10.816;2023-09-19T03:12:10;23.10;58.60
32753;DHT22;19121;52.428;10.816;2023-09-19T03:14:35;23.10;58.60
32753;DHT22;19121;52.428;10.816;2023-09-19T03:17:01;23.10;58.60
32753;DHT22;19121;52.428;10.816;2023-09-19T03:19:30;23.10;58.60
32753;DHT22;19121;52.428;10.816;2023-09-19T03:21:55;23.10;58.60
32753;DHT22;19121;52.428;10.816;2023-09-19T03:24:22;23.10;58.60
32753;DHT22;19121;52.428;10.816;2023-09-19T03:26:48;23.00;58.60
32753;DHT22;19121;52.428;10.816;2023-09-19T03:29:14;23.00;58.50
32753;DHT22;19121;52.428;10.816;2023-09-19T03:31:41;23.00;58.50
32753;DHT22;19121;52.428;10.816;2023-09-19T03:34:06;23.00;58.60
32753;DHT22;19121;52.428;10.816;2023-09-19T03:36:34;23.00;58.50
32753;DHT22;19121;52.428;10.816;2023-09-19T03:39:00;23.00;58.50
32753;DHT22;19121;52.428;10.816;2023-09-19T03:41:25;23.00;58.50
32753;DHT22;19121;52.428;10.816;2023-09-19T03:43:51;23.00;58.50
32753;DHT22;19121;52.428;10.816;2023-09-19T03:46:16;23.00;58.50
32753;DHT22;19121;52.428;10.816;2023-09-19T03:48:42;23.00;58.50
32753;DHT22;19121;52.428;10.816;2023-09-19T03:51:08;23.00;58.50
32753;DHT22;19121;52.428;10.816;2023-09-19T03:53:33;23.00;58.50
32753;DHT22;19121;52.428;10.816;2023-09-19T03:55:58;23.00;58.50
32753;DHT22;19121;52.428;10.816;2023-09-19T03:58:25;23.00;58.50
32753;DHT22;19121;52.428;10.816;2023-09-19T04:00:50;23.00;58.50
32753;DHT22;19121;52.428;10.816;2023-09-19T04:03:19;23.00;58.40
32753;DHT22;19121;52.428;10.816;2023-09-19T04:05:46;22.90;58.40
32753;DHT22;19121;52.428;10.816;2023-09-19T04:08:13;23.00;58.70
32753;DHT22;19121;52.428;10.816;2023-09-19T04:10:41;23.00;58.40
32753;DHT22;19121;52.428;10.816;2023-09-19T04:13:06;23.00;58.50
32753;DHT22;19121;52.428;10.816;2023-09-19T04:15:32;22.90;58.40
32753;DHT22;19121;52.428;10.816;2023-09-19T04:17:57;23.00;58.40
32753;DHT22;19121;52.428;10.816;2023-09-19T04:20:23;23.00;58.40
32753;DHT22;19121;52.428;10.816;2023-09-19T04:22:48;22.90;58.50
32753;DHT22;19121;52.428;10.816;2023-09-19T04:25:14;23.00;58.50
32753;DHT22;19121;52.428;10.816;2023-09-19T04:27:39;22.90;58.40
32753;DHT22;19121;52.428;10.816;2023-09-19T04:30:07;22.90;58.40
32753;DHT22;19121;52.428;10.816;2023-09-19T04:32:35;22.90;58.40
32753;DHT22;19121;52.428;10.816;2023-09-19T04:35:01;22.90;58.40
32753;DHT22;19121;52.428;10.816;2023-09-19T04:37:30;22.90;58.40
32753;DHT22;19121;52.428;10.816;2023-09-19T04:39:56;22.90;58.50
32753;DHT22;19121;52.428;10.816;2023-09-19T04:42:22;22.90;58.40
32753;DHT22;19121;52.428;10.816;2023-09-19T04:44:49;22.90;58.40
32753;DHT22;19121;52.428;10.816;2023-09-19T04:47:15;22.90;58.40
32753;DHT22;19121;52.428;10.816;2023-09-19T04:49:41;22.90;58.50
32753;DHT22;19121;52.428;10.816;2023-09-19T04:52:06;22.90;58.50
32753;DHT22;19121;52.428;10.816;2023-09-19T04:54:32;22.90;58.40
32753;DHT22;19121;52.428;10.816;2023-09-19T04:56:59;22.90;58.50
32753;DHT22;19121;52.428;10.816;2023-09-19T04:59:25;22.90;58.40
32753;DHT22;19121;52.428;10.816;2023-09-19T05:01:51;22.90;58.40
32753;DHT22;19121;52.428;10.816;2023-09-19T05:04:16;22.90;58.40
32753;DHT22;19121;52.428;10.816;2023-09-19T05:06:42;22.90;58.50
32753;DHT22;19121;52.428;10.816;2023-09-19T05:09:07;22.90;58.50
32753;DHT22;19121;52.428;10.816;2023-09-19T05:11:33;22.90;58.50
32753;DHT22;19121;52.428;10.816;2023-09-19T05:13:59;22.90;58.50
32753;DHT22;19121;52.428;10.816;2023-09-19T05:16:29;22.90;58.50
32753;DHT22;19121;52.428;10.816;2023-09-19T05:18:57;22.90;58.50
32753;DHT22;19121;52.428;10.816;2023-09-19T05:21:23;22.80;58.50
32753;DHT22;19121;52.428;10.816;2023-09-19T05:23:51;22.90;58.50
32753;DHT22;19121;52.428;10.816;2023-09-19T05:26:17;22.90;58.50
32753;DHT22;19121;52.428;10.816;2023-09-19T05:28:43;22.80;58.40
32753;DHT22;19121;52.428;10.816;2023-09-19T05:31:08;22.80;58.40
32753;DHT22;19121;52.428;10.816;2023-09-19T05:33:34;22.80;58.40
32753;DHT22;19121;52.428;10.816;2023-09-19T05:35:59;22.80;58.40
32753;DHT22;19121;52.428;10.816;2023-09-19T05:38:25;22.80;58.40
32753;DHT22;19121;52.428;10.816;2023-09-19T05:40:52;22.80;58.40
32753;DHT22;19121;52.428;10.816;2023-09-19T05:43:18;22.80;58.40
32753;DHT22;19121;52.428;10.816;2023-09-19T05:45:44;22.80;58.50
32753;DHT22;19121;52.428;10.816;2023-09-19T05:48:11;22.80;58.50
32753;DHT22;19121;52.428;10.816;2023-09-19T05:50:38;22.80;58.50
32753;DHT22;19121;52.428;10.816;2023-09-19T05:53:04;22.80;58.50
32753;DHT22;19121;52.428;10.816;2023-09-19T05:55:30;22.80;58.50
32753;DHT22;19121;52.428;10.816;2023-09-19T05:57:56;22.80;58.50
32753;DHT22;19121;52.428;10.816;2023-09-19T06:00:22;22.80;58.40
32753;DHT22;19121;52.428;10.816;2023-09-19T06:02:51;22.80;58.30
32753;DHT22;19121;52.428;10.816;2023-09-19T06:05:17;22.80;58.40
32753;DHT22;19121;52.428;10.816;2023-09-19T06:07:43;22.80;58.40
32753;DHT22;19121;52.428;10.816;2023-09-19T06:10:08;22.80;58.50
32753;DHT22;19121;52.428;10.816;2023-09-19T06:12:38;22.80;58.40
32753;DHT22;19121;52.428;10.816;2023-09-19T06:15:04;22.80;58.40
32753;DHT22;19121;52.428;10.816;2023-09-19T06:17:31;22.80;58.30
32753;DHT22;19121;52.428;10.816;2023-09-19T06:19:56;22.80;58.40
32753;DHT22;19121;52.428;10.816;2023-09-19T06:22:22;22.80;58.40
32753;DHT22;19121;52.428;10.816;2023-09-19T06:24:47;22.80;58.50
32753;DHT22;19121;52.428;10.816;2023-09-19T06:27:13;22.80;58.50
32753;DHT22;19121;52.428;10.816;2023-09-19T06:29:38;22.80;58.50
32753;DHT22;19121;52.428;10.816;2023-09-19T06:32:07;22.90;58.60
32753;DHT22;19121;52.428;10.816;2023-09-19T06:34:34;22.90;58.50
32753;DHT22;19121;52.428;10.816;2023-09-19T06:36:59;22.90;58.20
32753;DHT22;19121;52.428;10.816;2023-09-19T06:39:25;23.00;58.10
32753;DHT22;19121;52.428;10.816;2023-09-19T06:41:51;23.10;58.00
32753;DHT22;19121;52.428;10.816;2023-09-19T06:44:19;23.10;57.80
32753;DHT22;19121;52.428;10.816;2023-09-19T06:46:46;23.20;57.70
32753;DHT22;19121;52.428;10.816;2023-09-19T06:49:17;23.30;57.60
32753;DHT22;19121;52.428;10.816;2023-09-19T06:51:42;23.30;57.50
32753;DHT22;19121;52.428;10.816;2023-09-19T06:54:09;23.40;57.50
32753;DHT22;19121;52.428;10.816;2023-09-19T06:56:34;23.40;57.30
32753;DHT22;19121;52.428;10.816;2023-09-19T06:59:00;23.50;57.30
32753;DHT22;19121;52.428;10.816;2023-09-19T07:01:25;23.50;57.20
32753;DHT22;19121;52.428;10.816;2023-09-19T07:03:51;23.50;57.00
32753;DHT22;19121;52.428;10.816;2023-09-19T07:06:18;23.60;57.10
32753;DHT22;19121;52.428;10.816;2023-09-19T07:08:44;23.60;56.90
32753;DHT22;19121;52.428;10.816;2023-09-19T07:11:10;23.70;56.90
32753;DHT22;19121;52.428;10.816;2023-09-19T07:13:37;23.70;56.60
32753;DHT22;19121;52.428;10.816;2023-09-19T07:16:03;23.80;56.20
32753;DHT22;19121;52.428;10.816;2023-09-19T07:18:29;23.80;55.70
32753;DHT22;19121;52.428;10.816;2023-09-19T07:20:58;23.80;55.30
32753;DHT22;19121;52.428;10.816;2023-09-19T07:23:30;23.90;55.30
32753;DHT22;19121;52.428;10.816;2023-09-19T07:26:00;23.90;54.90
32753;DHT22;19121;52.428;10.816;2023-09-19T07:28:26;24.00;54.70
32753;DHT22;19121;52.428;10.816;2023-09-19T07:30:52;24.00;54.40
32753;DHT22;19121;52.428;10.816;2023-09-19T07:33:17;24.00;54.40
32753;DHT22;19121;52.428;10.816;2023-09-19T07:35:46;24.10;54.20
32753;DHT22;19121;52.428;10.816;2023-09-19T07:38:12;24.10;53.90
32753;DHT22;19121;52.428;10.816;2023-09-19T07:40:38;24.10;53.70
32753;DHT22;19121;52.428;10.816;2023-09-19T07:43:03;24.20;53.60
32753;DHT22;19121;52.428;10.816;2023-09-19T07:45:30;24.20;53.30
32753;DHT22;19121;52.428;10.816;2023-09-19T07:47:56;24.20;53.00
32753;DHT22;19121;52.428;10.816;2023-09-19T07:50:21;24.20;52.80
32753;DHT22;19121;52.428;10.816;2023-09-19T07:52:47;24.20;52.50
32753;DHT22;19121;52.428;10.816;2023-09-19T07:55:13;24.20;52.50
32753;DHT22;19121;52.428;10.816;2023-09-19T07:57:42;24.20;52.20
32753;DHT22;19121;52.428;10.816;2023-09-19T08:00:07;24.30;52.20
32753;DHT22;19121;52.428;10.816;2023-09-19T08:02:36;24.30;52.10
32753;DHT22;19121;52.428;10.816;2023-09-19T08:05:05;24.30;52.00
32753;DHT22;19121;52.428;10.816;2023-09-19T08:07:37;24.30;51.70
32753;DHT22;19121;52.428;10.816;2023-09-19T08:10:04;24.30;51.00
32753;DHT22;19121;52.428;10.816;2023-09-19T08:12:29;24.20;50.90
32753;DHT22;19121;52.428;10.816;2023-09-19T08:14:55;24.20;50.70
32753;DHT22;19121;52.428;10.816;2023-09-19T08:17:21;24.10;51.00
32753;DHT22;19121;52.428;10.816;2023-09-19T08:19:48;24.20;50.50
32753;DHT22;19121;52.428;10.816;2023-09-19T08:22:14;24.20;50.50
32753;DHT22;19121;52.428;10.816;2023-09-19T08:24:42;24.20;50.60
32753;DHT22;19121;52.428;10.816;2023-09-19T08:27:08;24.30;50.60
32753;DHT22;19121;52.428;10.816;2023-09-19T08:29:35;24.30;50.70
32753;DHT22;19121;52.428;10.816;2023-09-19T08:32:00;24.40;50.70
32753;DHT22;19121;52.428;10.816;2023-09-19T08:34:26;24.40;50.60
32753;DHT22;19121;52.428;10.816;2023-09-19T08:36:55;24.50;50.60
32753;DHT22;19121;52.428;10.816;2023-09-19T08:39:26;24.50;50.70
32753;DHT22;19121;52.428;10.816;2023-09-19T08:41:58;24.50;51.40
32753;DHT22;19121;52.428;10.816;2023-09-19T08:44:24;24.50;50.80
32753;DHT22;19121;52.428;10.816;2023-09-19T08:46:50;24.50;50.80
32753;DHT22;19121;52.428;10.816;2023-09-19T08:49:24;24.50;50.90
32753;DHT22;19121;52.428;10.816;2023-09-19T08:51:59;24.50;50.90
32753;DHT22;19121;52.428;10.816;2023-09-19T08:54:28;24.60;50.90
32753;DHT22;19121;52.428;10.816;2023-09-19T08:56:54;24.50;51.00
32753;DHT22;19121;52.428;10.816;2023-09-19T08:59:22;24.50;51.10
32753;DHT22;19121;52.428;10.816;2023-09-19T09:01:50;24.50;51.20
32753;DHT22;19121;52.428;10.816;2023-09-19T09:04:18;24.50;50.80
32753;DHT22;19121;52.428;10.816;2023-09-19T09:06:45;24.50;50.80
32753;DHT22;19121;52.428;10.816;2023-09-19T09:09:14;24.50;50.80
32753;DHT22;19121;52.428;10.816;2023-09-19T09:11:40;24.50;50.80
32753;DHT22;19121;52.428;10.816;2023-09-19T09:14:06;24.50;50.90
32753;DHT22;19121;52.428;10.816;2023-09-19T09:16:32;24.50;51.00
32753;DHT22;19121;52.428;10.816;2023-09-19T09:18:58;24.50;51.00
32753;DHT22;19121;52.428;10.816;2023-09-19T09:21:26;24.50;50.70
32753;DHT22;19121;52.428;10.816;2023-09-19T09:23:52;24.50;50.80
32753;DHT22;19121;52.428;10.816;2023-09-19T09:29:02;24.50;50.80
32753;DHT22;19121;52.428;10.816;2023-09-19T09:31:27;24.50;50.80
32753;DHT22;19121;52.428;10.816;2023-09-19T09:33:53;24.40;50.40
32753;DHT22;19121;52.428;10.816;2023-09-19T09:36:33;24.40;50.30
32753;DHT22;19121;52.428;10.816;2023-09-19T09:38:59;24.40;49.90
32753;DHT22;19121;52.428;10.816;2023-09-19T09:41:37;24.40;50.00
32753;DHT22;19121;52.428;10.816;2023-09-19T09:44:15;24.40;50.10
32753;DHT22;19121;52.428;10.816;2023-09-19T09:46:44;24.40;50.20
32753;DHT22;19121;52.428;10.816;2023-09-19T09:49:24;24.30;50.20
32753;DHT22;19121;52.428;10.816;2023-09-19T09:52:04;24.30;50.10
32753;DHT22;19121;52.428;10.816;2023-09-19T09:54:31;24.30;50.00
32753;DHT22;19121;52.428;10.816;2023-09-19T09:57:03;24.40;50.00
32753;DHT22;19121;52.428;10.816;2023-09-19T09:59:51;24.30;50.10
32753;DHT22;19121;52.428;10.816;2023-09-19T10:02:30;24.30;50.30
32753;DHT22;19121;52.428;10.816;2023-09-19T10:05:14;24.30;50.40
32753;DHT22;19121;52.428;10.816;2023-09-19T10:07:47;24.30;50.30
32753;DHT22;19121;52.428;10.816;2023-09-19T10:10:34;24.30;50.40
32753;DHT22;19121;52.428;10.816;2023-09-19T10:13:09;24.30;50.60
32753;DHT22;19121;52.428;10.816;2023-09-19T10:15:39;24.30;50.70
32753;DHT22;19121;52.428;10.816;2023-09-19T10:18:16;24.30;50.20
32753;DHT22;19121;52.428;10.816;2023-09-19T10:20:45;24.20;49.60
32753;DHT22;19121;52.428;10.816;2023-09-19T10:23:11;24.20;49.70
32753;DHT22;19121;52.428;10.816;2023-09-19T10:25:41;24.20;49.50
32753;DHT22;19121;52.428;10.816;2023-09-19T10:28:10;24.10;49.10
32753;DHT22;19121;52.428;10.816;2023-09-19T10:30:37;24.10;48.90
32753;DHT22;19121;52.428;10.816;2023-09-19T10:33:04;24.00;49.00
32753;DHT22;19121;52.428;10.816;2023-09-19T10:35:33;24.00;48.90
32753;DHT22;19121;52.428;10.816;2023-09-19T10:38:00;24.00;48.90
32753;DHT22;19121;52.428;10.816;2023-09-19T10:40:29;24.00;48.90
32753;DHT22;19121;52.428;10.816;2023-09-19T10:43:03;24.00;48.70
32753;DHT22;19121;52.428;10.816;2023-09-19T10:45:40;24.10;48.90
32753;DHT22;19121;52.428;10.816;2023-09-19T10:48:06;24.10;48.80
32753;DHT22;19121;52.428;10.816;2023-09-19T10:53:07;24.00;48.70
32753;DHT22;19121;52.428;10.816;2023-09-19T10:55:36;24.10;48.60
32753;DHT22;19121;52.428;10.816;2023-09-19T10:58:02;24.10;48.50
32753;DHT22;19121;52.428;10.816;2023-09-19T11:00:49;24.10;48.50
32753;DHT22;19121;52.428;10.816;2023-09-19T11:05:43;24.10;48.80
32753;DHT22;19121;52.428;10.816;2023-09-19T11:08:24;24.10;48.80
32753;DHT22;19121;52.428;10.816;2023-09-19T11:10:50;24.10;48.80
32753;DHT22;19121;52.428;10.816;2023-09-19T11:13:29;24.10;48.80
32753;DHT22;19121;52.428;10.816;2023-09-19T11:18:50;24.00;48.50
32753;DHT22;19121;52.428;10.816;2023-09-19T11:21:38;24.00;48.40
32753;DHT22;19121;52.428;10.816;2023-09-19T11:26:50;24.00;48.10
32753;DHT22;19121;52.428;10.816;2023-09-19T11:31:52;24.00;48.40
32753;DHT22;19121;52.428;10.816;2023-09-19T11:37:01;24.00;48.10
32753;DHT22;19121;52.428;10.816;2023-09-19T11:39:29;24.00;48.20
32753;DHT22;19121;52.428;10.816;2023-09-19T11:41:55;24.00;48.20
32753;DHT22;19121;52.428;10.816;2023-09-19T11:49:27;24.00;48.40
32753;DHT22;19121;52.428;10.816;2023-09-19T11:51:55;24.00;48.40
32753;DHT22;19121;52.428;10.816;2023-09-19T11:54:21;24.00;48.50
32753;DHT22;19121;52.428;10.816;2023-09-19T11:56:54;24.00;48.60
32753;DHT22;19121;52.428;10.816;2023-09-19T11:59:23;24.00;48.50
32753;DHT22;19121;52.428;10.816;2023-09-19T12:01:50;24.00;48.50
32753;DHT22;19121;52.428;10.816;2023-09-19T12:04:16;24.00;48.50
32753;DHT22;19121;52.428;10.816;2023-09-19T12:06:43;24.00;48.50
32753;DHT22;19121;52.428;10.816;2023-09-19T12:09:22;24.00;49.10
32753;DHT22;19121;52.428;10.816;2023-09-19T12:11:47;24.00;48.60
32753;DHT22;19121;52.428;10.816;2023-09-19T12:14:24;24.00;48.60
32753;DHT22;19121;52.428;10.816;2023-09-19T12:16:57;23.90;48.50
32753;DHT22;19121;52.428;10.816;2023-09-19T12:19:25;24.00;48.40
32753;DHT22;19121;52.428;10.816;2023-09-19T12:21:58;24.00;48.40
32753;DHT22;19121;52.428;10.816;2023-09-19T12:24:25;24.00;48.50
32753;DHT22;19121;52.428;10.816;2023-09-19T12:26:51;24.00;48.40
32753;DHT22;19121;52.428;10.816;2023-09-19T12:29:18;24.00;48.40
32753;DHT22;19121;52.428;10.816;2023-09-19T12:31:54;24.00;48.10
32753;DHT22;19121;52.428;10.816;2023-09-19T12:34:26;24.00;48.20
32753;DHT22;19121;52.428;10.816;2023-09-19T12:37:08;24.00;48.20
32753;DHT22;19121;52.428;10.816;2023-09-19T12:39:40;24.00;48.00
32753;DHT22;19121;52.428;10.816;2023-09-19T12:42:10;24.00;48.00
32753;DHT22;19121;52.428;10.816;2023-09-19T12:44:39;24.00;48.10
32753;DHT22;19121;52.428;10.816;2023-09-19T12:47:10;24.00;47.90
32753;DHT22;19121;52.428;10.816;2023-09-19T12:49:36;24.00;48.10
32753;DHT22;19121;52.428;10.816;2023-09-19T12:52:01;24.00;48.10
32753;DHT22;19121;52.428;10.816;2023-09-19T12:54:39;24.00;48.10
32753;DHT22;19121;52.428;10.816;2023-09-19T12:57:05;24.00;47.90
32753;DHT22;19121;52.428;10.816;2023-09-19T12:59:30;24.00;47.90
32753;DHT22;19121;52.428;10.816;2023-09-19T13:02:04;24.00;47.80
32753;DHT22;19121;52.428;10.816;2023-09-19T13:04:32;24.00;47.80
32753;DHT22;19121;52.428;10.816;2023-09-19T13:06:59;24.00;47.70
32753;DHT22;19121;52.428;10.816;2023-09-19T13:09:26;24.00;47.70
32753;DHT22;19121;52.428;10.816;2023-09-19T13:12:03;24.00;47.60
32753;DHT22;19121;52.428;10.816;2023-09-19T13:14:29;24.00;47.50
32753;DHT22;19121;52.428;10.816;2023-09-19T13:17:03;24.00;47.50
32753;DHT22;19121;52.428;10.816;2023-09-19T13:19:37;24.00;47.50
32753;DHT22;19121;52.428;10.816;2023-09-19T13:22:02;24.00;47.40
32753;DHT22;19121;52.428;10.816;2023-09-19T13:24:28;24.00;47.30
32753;DHT22;19121;52.428;10.816;2023-09-19T13:26:55;24.00;47.40
32753;DHT22;19121;52.428;10.816;2023-09-19T13:29:20;24.00;47.40
32753;DHT22;19121;52.428;10.816;2023-09-19T13:31:48;24.00;47.40
32753;DHT22;19121;52.428;10.816;2023-09-19T13:34:15;24.00;47.40
32753;DHT22;19121;52.428;10.816;2023-09-19T13:36:43;24.00;47.30
32753;DHT22;19121;52.428;10.816;2023-09-19T13:39:09;24.00;47.50
32753;DHT22;19121;52.428;10.816;2023-09-19T13:41:37;23.90;47.30
32753;DHT22;19121;52.428;10.816;2023-09-19T13:44:03;24.00;47.50
32753;DHT22;19121;52.428;10.816;2023-09-19T13:46:29;24.00;47.50
32753;DHT22;19121;52.428;10.816;2023-09-19T13:48:58;23.90;47.30
32753;DHT22;19121;52.428;10.816;2023-09-19T13:51:27;24.00;47.30
32753;DHT22;19121;52.428;10.816;2023-09-19T13:53:53;24.00;47.30
32753;DHT22;19121;52.428;10.816;2023-09-19T13:56:18;24.00;47.30
32753;DHT22;19121;52.428;10.816;2023-09-19T13:58:44;24.00;47.40
32753;DHT22;19121;52.428;10.816;2023-09-19T14:01:09;24.00;47.50
32753;DHT22;19121;52.428;10.816;2023-09-19T14:03:38;24.00;47.50
32753;DHT22;19121;52.428;10.816;2023-09-19T14:06:03;24.00;47.60
32753;DHT22;19121;52.428;10.816;2023-09-19T14:08:29;24.00;47.50
32753;DHT22;19121;52.428;10.816;2023-09-19T14:10:54;24.00;47.30
32753;DHT22;19121;52.428;10.816;2023-09-19T14:13:20;24.00;47.10
32753;DHT22;19121;52.428;10.816;2023-09-19T14:15:46;24.00;47.00
32753;DHT22;19121;52.428;10.816;2023-09-19T14:18:11;23.90;47.10
32753;DHT22;19121;52.428;10.816;2023-09-19T14:20:39;24.00;47.20
32753;DHT22;19121;52.428;10.816;2023-09-19T14:23:08;24.00;47.30
32753;DHT22;19121;52.428;10.816;2023-09-19T14:25:34;24.00;47.30
32753;DHT22;19121;52.428;10.816;2023-09-19T14:27:59;24.00;47.40
32753;DHT22;19121;52.428;10.816;2023-09-19T14:30:24;24.00;47.40
32753;DHT22;19121;52.428;10.816;2023-09-19T14:32:50;24.00;47.50
32753;DHT22;19121;52.428;10.816;2023-09-19T14:35:16;23.90;47.50
32753;DHT22;19121;52.428;10.816;2023-09-19T14:37:41;24.00;47.60
32753;DHT22;19121;52.428;10.816;2023-09-19T14:40:07;24.00;47.60
32753;DHT22;19121;52.428;10.816;2023-09-19T14:42:38;24.00;47.60
32753;DHT22;19121;52.428;10.816;2023-09-19T14:45:04;24.00;47.70
32753;DHT22;19121;52.428;10.816;2023-09-19T14:47:30;24.00;47.80
32753;DHT22;19121;52.428;10.816;2023-09-19T14:50:00;23.90;47.70
32753;DHT22;19121;52.428;10.816;2023-09-19T14:52:25;24.00;47.80
32753;DHT22;19121;52.428;10.816;2023-09-19T14:54:53;24.00;47.90
32753;DHT22;19121;52.428;10.816;2023-09-19T14:57:19;24.00;48.00
32753;DHT22;19121;52.428;10.816;2023-09-19T14:59:44;24.00;48.10
32753;DHT22;19121;52.428;10.816;2023-09-19T15:02:10;24.00;48.20
32753;DHT22;19121;52.428;10.816;2023-09-19T15:04:35;24.00;48.30
32753;DHT22;19121;52.428;10.816;2023-09-19T15:07:01;24.00;48.30
32753;DHT22;19121;52.428;10.816;2023-09-19T15:09:27;24.00;48.40
32753;DHT22;19121;52.428;10.816;2023-09-19T15:11:54;24.00;48.40
32753;DHT22;19121;52.428;10.816;2023-09-19T15:14:19;23.90;48.40
32753;DHT22;19121;52.428;10.816;2023-09-19T15:16:45;23.90;48.50
32753;DHT22;19121;52.428;10.816;2023-09-19T15:19:10;23.90;48.50
32753;DHT22;19121;52.428;10.816;2023-09-19T15:21:36;23.90;48.50
32753;DHT22;19121;52.428;10.816;2023-09-19T15:24:02;23.90;48.60
32753;DHT22;19121;52.428;10.816;2023-09-19T15:26:28;23.90;48.70
32753;DHT22;19121;52.428;10.816;2023-09-19T15:28:55;23.90;48.80
32753;DHT22;19121;52.428;10.816;2023-09-19T15:31:20;23.90;48.70
32753;DHT22;19121;52.428;10.816;2023-09-19T15:33:46;23.90;48.80
32753;DHT22;19121;52.428;10.816;2023-09-19T15:36:13;23.80;48.80
32753;DHT22;19121;52.428;10.816;2023-09-19T15:38:58;23.90;48.90
32753;DHT22;19121;52.428;10.816;2023-09-19T15:41:25;23.80;48.90
32753;DHT22;19121;52.428;10.816;2023-09-19T15:43:50;23.90;49.00
32753;DHT22;19121;52.428;10.816;2023-09-19T15:46:16;23.90;49.10
32753;DHT22;19121;52.428;10.816;2023-09-19T15:48:41;23.90;49.10
32753;DHT22;19121;52.428;10.816;2023-09-19T15:51:07;23.80;49.10
32753;DHT22;19121;52.428;10.816;2023-09-19T15:53:45;23.90;49.10
32753;DHT22;19121;52.428;10.816;2023-09-19T15:56:11;23.90;49.20